Time;durP1;ratioP1;P1;durP2;ratioP2;P2;SDS_P1;SDS_P2;PMS_P1;PMS_P2;Temp;Humidity;BMP_temperature;BMP_pressure;BME280_temperature;BME280_humidity;BME280_pressure;Samples;Min_cycle;Max_cycle;Signal;HPM_P1;HPM_P2
2021/05/30 00:00:50;;;;;;;;;;;;;;;20.13;34.80;100422.94;5344462;26;33551;-87
2021/05/30 00:03:18;;;;;;;;;;;;;;;20.11;34.63;100423.03;5344666;26;33471;-88
2021/05/30 00:05:46;;;;;;;;;;;;;;;20.38;34.14;100416.16;5344537;26;33260;-88
2021/05/30 00:08:14;;;;;;;;;;;;;;;19.70;35.46;100423.66;5344868;26;33627;-87
2021/05/30 00:10:43;;;;;;;;;;;;;;;19.82;35.21;100417.69;5345238;26;33314;-88
2021/05/30 00:13:11;;;;;;;;;;;;;;;19.60;35.67;100418.06;5326133;26;34331;-87
2021/05/30 00:15:39;;;;;;;;;;;;;;;18.69;37.62;100409.87;5326576;26;33984;-88
2021/05/30 00:18:07;;;;;;;;;;;;;;;19.94;35.12;100417.91;5344918;26;34234;-89
2021/05/30 00:20:35;;;;;;;;;;;;;;;19.78;35.47;100412.63;5344394;26;32141;-87
2021/05/30 00:23:02;;;;;;;;;;;;;;;20.13;34.75;100412.34;5344550;26;32922;-87
2021/05/30 00:25:30;;;;;;;;;;;;;;;20.49;34.10;100409.25;5326378;26;34101;-88
2021/05/30 00:27:57;;;;;;;;;;;;;;;20.27;34.48;100401.78;5326372;26;32909;-88
2021/05/30 00:30:25;;;;;;;;;;;;;;;19.45;36.09;100416.28;5344574;26;32095;-88
2021/05/30 00:32:53;;;;;;;;;;;;;;;20.14;34.81;100411.41;5326538;26;32953;-88
2021/05/30 00:35:21;;;;;;;;;;;;;;;19.83;35.50;100405.31;5344500;26;33260;-88
2021/05/30 00:37:48;;;;;;;;;;;;;;;19.94;35.22;100404.69;5363018;26;32929;-88
2021/05/30 00:40:17;;;;;;;;;;;;;;;19.81;35.50;100407.19;5326549;26;32618;-87
2021/05/30 00:42:44;;;;;;;;;;;;;;;19.61;35.90;100403.03;5344008;26;32982;-88
2021/05/30 00:45:12;;;;;;;;;;;;;;;19.26;36.64;100405.94;5326087;26;34592;-88
2021/05/30 00:47:41;;;;;;;;;;;;;;;19.37;36.45;100400.88;5344422;26;33092;-87
2021/05/30 00:50:11;;;;;;;;;;;;;;;19.57;36.04;100397.09;5326761;26;32098;-88
2021/05/30 00:52:39;;;;;;;;;;;;;;;19.47;36.15;100395.94;5362747;26;35457;-88
2021/05/30 00:55:08;;;;;;;;;;;;;;;19.23;36.29;100392.91;5362879;26;34110;-88
2021/05/30 00:57:36;;;;;;;;;;;;;;;19.59;35.75;100400.50;5326670;26;33463;-88
2021/05/30 01:00:04;;;;;;;;;;;;;;;19.40;36.31;100400.72;5345195;26;34078;-87
2021/05/30 01:02:32;;;;;;;;;;;;;;;18.96;37.08;100393.50;5326844;26;34266;-88
2021/05/30 01:05:00;;;;;;;;;;;;;;;17.98;39.46;100397.78;5344924;26;33676;-88
2021/05/30 01:07:27;;;;;;;;;;;;;;;18.92;37.52;100403.37;5345831;26;34105;-87
2021/05/30 01:09:56;;;;;;;;;;;;;;;18.61;38.27;100402.38;5347444;26;32093;-88
2021/05/30 01:12:24;;;;;;;;;;;;;;;18.63;38.15;100408.44;5332728;26;32924;-87
2021/05/30 01:14:51;;;;;;;;;;;;;;;18.38;38.54;100408.88;5364827;26;33856;-88
2021/05/30 01:17:19;;;;;;;;;;;;;;;18.40;38.61;100411.44;5345364;26;32664;-88
2021/05/30 01:19:47;;;;;;;;;;;;;;;18.78;37.78;100406.75;5345491;26;32026;-88
2021/05/30 01:22:14;;;;;;;;;;;;;;;17.86;40.07;100407.16;5326927;26;32896;-87
2021/05/30 01:24:42;;;;;;;;;;;;;;;18.07;39.69;100415.78;5327016;26;33577;-87
2021/05/30 01:27:10;;;;;;;;;;;;;;;18.21;39.46;100411.56;5345557;26;32898;-87
2021/05/30 01:29:39;;;;;;;;;;;;;;;18.13;39.63;100414.59;5345299;26;32479;-87
2021/05/30 01:32:08;;;;;;;;;;;;;;;18.82;37.85;100415.34;5345637;26;33640;-87
2021/05/30 01:34:36;;;;;;;;;;;;;;;18.20;39.07;100413.34;5327206;26;33197;-88
2021/05/30 01:37:03;;;;;;;;;;;;;;;18.38;38.87;100418.59;5327036;26;33842;-87
2021/05/30 01:39:32;;;;;;;;;;;;;;;17.25;41.46;100408.41;5345434;26;32138;-88
2021/05/30 01:42:00;;;;;;;;;;;;;;;16.90;42.29;100414.41;5326857;26;32722;-87
2021/05/30 01:44:27;;;;;;;;;;;;;;;17.72;40.39;100413.09;5326828;26;34102;-88
2021/05/30 01:46:55;;;;;;;;;;;;;;;17.21;41.61;100405.06;5363559;26;32868;-87
2021/05/30 01:49:23;;;;;;;;;;;;;;;17.33;41.16;100414.97;5363710;26;33127;-88
2021/05/30 01:51:50;;;;;;;;;;;;;;;17.44;41.07;100427.63;5345170;26;33033;-87
2021/05/30 01:54:20;;;;;;;;;;;;;;;17.57;40.69;100414.72;5327077;26;33075;-87
2021/05/30 01:56:57;;;;;;;;;;;;;;;17.35;41.09;100407.88;5363598;26;33804;-88
2021/05/30 01:59:26;;;;;;;;;;;;;;;17.83;39.89;100409.94;5326798;26;32438;-88
2021/05/30 02:01:56;;;;;;;;;;;;;;;18.64;38.07;100409.28;5345294;26;33216;-87
2021/05/30 02:04:27;;;;;;;;;;;;;;;17.61;40.48;100403.09;5345265;26;34506;-87
2021/05/30 02:06:55;;;;;;;;;;;;;;;16.82;42.56;100408.62;5363741;26;32968;-88
2021/05/30 02:09:22;;;;;;;;;;;;;;;16.77;42.52;100408.81;5345220;26;34159;-88
2021/05/30 02:11:50;;;;;;;;;;;;;;;17.55;40.70;100410.44;5326653;26;34043;-87
2021/05/30 02:14:18;;;;;;;;;;;;;;;16.33;43.46;100415.16;5345628;26;34314;-87
2021/05/30 02:16:46;;;;;;;;;;;;;;;17.33;41.24;100414.97;5363466;26;33251;-88
2021/05/30 02:19:14;;;;;;;;;;;;;;;16.83;42.37;100410.31;5363429;26;32659;-87
2021/05/30 02:21:43;;;;;;;;;;;;;;;16.57;42.85;100412.38;5326425;26;32798;-87
2021/05/30 02:24:11;;;;;;;;;;;;;;;17.55;40.85;100416.59;5363215;26;34820;-88
2021/05/30 02:26:39;;;;;;;;;;;;;;;17.78;40.20;100412.78;5326661;26;34407;-87
2021/05/30 02:29:06;;;;;;;;;;;;;;;17.02;41.91;100411.19;5328004;26;32559;-88
2021/05/30 02:31:35;;;;;;;;;;;;;;;16.91;42.02;100416.13;5349774;26;33786;-87
2021/05/30 02:34:03;;;;;;;;;;;;;;;16.25;43.67;100413.81;5346750;26;34018;-88
2021/05/30 02:36:30;;;;;;;;;;;;;;;16.73;42.73;100416.94;5345043;26;33720;-88
2021/05/30 02:38:58;;;;;;;;;;;;;;;17.58;40.61;100416.44;5326634;26;32129;-88
2021/05/30 02:41:26;;;;;;;;;;;;;;;16.42;43.23;100420.94;5308390;26;32845;-88
2021/05/30 02:43:53;;;;;;;;;;;;;;;17.48;40.82;100415.16;5345098;26;34020;-88
2021/05/30 02:46:21;;;;;;;;;;;;;;;17.24;41.47;100417.22;5326575;26;33758;-88
2021/05/30 02:48:49;;;;;;;;;;;;;;;17.38;41.11;100414.78;5326774;26;33259;-87
2021/05/30 02:51:17;;;;;;;;;;;;;;;18.18;39.22;100413.41;5363395;26;33597;-87
2021/05/30 02:53:44;;;;;;;;;;;;;;;18.01;39.33;100419.56;5326311;26;34026;-87
2021/05/30 02:56:12;;;;;;;;;;;;;;;18.10;39.28;100420.03;5345334;26;34102;-87
2021/05/30 02:58:40;;;;;;;;;;;;;;;17.36;41.07;100420.13;5363689;26;32521;-87
2021/05/30 03:01:07;;;;;;;;;;;;;;;17.93;39.79;100424.38;5326737;26;32926;-87
2021/05/30 03:03:37;;;;;;;;;;;;;;;16.98;41.57;100428.06;5327274;26;33993;-88
2021/05/30 03:06:04;;;;;;;;;;;;;;;18.52;38.37;100424.84;5363346;26;33710;-88
2021/05/30 03:08:32;;;;;;;;;;;;;;;18.79;37.84;100420.81;5326611;26;32461;-88
2021/05/30 03:11:02;;;;;;;;;;;;;;;18.53;38.28;100425.69;5345388;26;34075;-88
2021/05/30 03:13:30;;;;;;;;;;;;;;;18.17;39.14;100426.69;5326556;26;33451;-87
2021/05/30 03:15:58;;;;;;;;;;;;;;;18.03;39.55;100420.34;5363684;26;33856;-88
2021/05/30 03:18:26;;;;;;;;;;;;;;;18.50;38.35;100420.59;5326859;26;32106;-87
2021/05/30 03:20:54;;;;;;;;;;;;;;;18.79;37.62;100411.09;5345285;26;34747;-88
2021/05/30 03:23:21;;;;;;;;;;;;;;;19.02;37.36;100411.66;5344410;26;33554;-87
2021/05/30 03:25:50;;;;;;;;;;;;;;;18.97;37.49;100422.47;5326819;26;33312;-87
2021/05/30 03:28:18;;;;;;;;;;;;;;;19.10;37.06;100424.44;5344821;26;33239;-88
2021/05/30 03:30:46;;;;;;;;;;;;;;;19.39;36.56;100424.59;5326226;26;33874;-87
2021/05/30 03:33:14;;;;;;;;;;;;;;;19.57;36.14;100422.66;5326280;26;32996;-88
2021/05/30 03:35:43;;;;;;;;;;;;;;;19.68;36.07;100420.25;5326403;26;32754;-88
2021/05/30 03:38:12;;;;;;;;;;;;;;;19.35;36.61;100416.81;5326640;26;33129;-87
2021/05/30 03:40:48;;;;;;;;;;;;;;;19.36;36.71;100417.69;5344964;26;32852;-88
2021/05/30 03:43:15;;;;;;;;;;;;;;;19.42;36.62;100416.47;5363259;26;35466;-88
2021/05/30 03:45:44;;;;;;;;;;;;;;;19.53;36.30;100421.97;5326879;26;32978;-88
2021/05/30 03:48:12;;;;;;;;;;;;;;;19.46;36.36;100421.47;5344661;26;34062;-87
2021/05/30 03:50:40;;;;;;;;;;;;;;;19.27;36.60;100420.84;5326563;26;32691;-88
2021/05/30 03:53:08;;;;;;;;;;;;;;;19.69;35.65;100429.87;5326028;26;32851;-88
2021/05/30 03:55:35;;;;;;;;;;;;;;;20.29;34.55;100429.00;5362886;26;33956;-88
2021/05/30 03:58:03;;;;;;;;;;;;;;;19.72;35.60;100428.84;5344766;26;32127;-88
2021/05/30 04:00:31;;;;;;;;;;;;;;;19.69;35.70;100428.09;5326503;26;32790;-88
2021/05/30 04:02:59;;;;;;;;;;;;;;;19.61;36.04;100425.06;5326626;26;32959;-88
2021/05/30 04:05:27;;;;;;;;;;;;;;;19.46;36.33;100426.75;5326304;26;32809;-88
2021/05/30 04:07:55;;;;;;;;;;;;;;;19.38;36.45;100431.62;5344722;26;33532;-88
2021/05/30 04:10:22;;;;;;;;;;;;;;;19.70;36.05;100434.22;5344474;26;35011;-88
2021/05/30 04:12:50;;;;;;;;;;;;;;;19.87;35.60;100441.22;5344400;26;32887;-88
2021/05/30 04:15:18;;;;;;;;;;;;;;;19.84;35.75;100442.22;5344409;26;32883;-88
2021/05/30 04:17:46;;;;;;;;;;;;;;;20.01;35.37;100432.47;5344737;26;33190;-88
2021/05/30 04:20:17;;;;;;;;;;;;;;;20.13;34.86;100425.56;5344884;26;33702;-88
2021/05/30 04:22:44;;;;;;;;;;;;;;;19.86;35.52;100428.91;5344843;26;33115;-88
2021/05/30 04:25:13;;;;;;;;;;;;;;;19.03;37.59;100432.69;5344870;26;34304;-88
2021/05/30 04:27:41;;;;;;;;;;;;;;;19.67;36.26;100424.69;5362828;26;32675;-88
2021/05/30 04:30:10;;;;;;;;;;;;;;;19.50;36.67;100424.81;5362962;26;34084;-88
2021/05/30 04:32:38;;;;;;;;;;;;;;;20.01;35.70;100419.25;5344650;26;33114;-88
2021/05/30 04:35:06;;;;;;;;;;;;;;;20.28;35.08;100414.06;5344590;26;33888;-87
2021/05/30 04:37:34;;;;;;;;;;;;;;;20.24;35.15;100417.84;5326236;26;32477;-88
2021/05/30 04:40:03;;;;;;;;;;;;;;;20.46;34.83;100417.41;5326613;26;33999;-88
2021/05/30 04:42:32;;;;;;;;;;;;;;;20.28;35.23;100414.06;5363636;26;33129;-88
2021/05/30 04:45:00;;;;;;;;;;;;;;;20.57;34.65;100418.50;5363877;26;33485;-88
2021/05/30 04:47:28;;;;;;;;;;;;;;;20.69;34.44;100413.34;5327736;26;32018;-88
2021/05/30 04:49:55;;;;;;;;;;;;;;;20.63;34.50;100405.75;5364783;26;33913;-88
2021/05/30 04:52:23;;;;;;;;;;;;;;;21.18;33.13;100411.19;5346431;26;34489;-88
2021/05/30 04:54:52;;;;;;;;;;;;;;;21.33;32.87;100410.16;5349482;26;33765;-89
2021/05/30 04:57:19;;;;;;;;;;;;;;;21.52;32.89;100417.78;5349672;26;34346;-87
2021/05/30 04:59:46;;;;;;;;;;;;;;;21.17;33.39;100422.72;5330068;26;32929;-87
2021/05/30 05:02:15;;;;;;;;;;;;;;;21.46;33.08;100418.16;5332712;26;33169;-88
2021/05/30 05:04:42;;;;;;;;;;;;;;;20.37;34.95;100417.97;5327451;26;32921;-88
2021/05/30 05:07:09;;;;;;;;;;;;;;;20.75;34.30;100413.91;5345450;26;33201;-88
2021/05/30 05:09:38;;;;;;;;;;;;;;;21.04;33.51;100416.50;5345726;26;34859;-88
2021/05/30 05:12:06;;;;;;;;;;;;;;;21.76;32.31;100414.44;5345078;26;34623;-88
2021/05/30 05:14:33;;;;;;;;;;;;;;;21.87;32.01;100416.37;5345139;26;34306;-88
2021/05/30 05:17:02;;;;;;;;;;;;;;;21.84;32.11;100419.25;5345427;26;33377;-88
2021/05/30 05:19:29;;;;;;;;;;;;;;;21.64;31.86;100416.13;5326730;26;33706;-89
2021/05/30 05:21:57;;;;;;;;;;;;;;;22.01;31.29;100412.78;5326829;26;32751;-88
2021/05/30 05:24:24;;;;;;;;;;;;;;;21.87;31.56;100416.37;5326930;26;33137;-87
2021/05/30 05:26:52;;;;;;;;;;;;;;;22.01;31.23;100418.94;5326735;26;32320;-88
2021/05/30 05:29:19;;;;;;;;;;;;;;;22.06;31.10;100420.44;5345333;26;33180;-88
2021/05/30 05:31:47;;;;;;;;;;;;;;;22.58;30.34;100414.19;5308366;26;33030;-88
2021/05/30 05:34:15;;;;;;;;;;;;;;;22.70;30.10;100409.81;5326621;26;34047;-88
2021/05/30 05:36:42;;;;;;;;;;;;;;;21.73;32.04;100416.47;5326850;26;33210;-88
2021/05/30 05:39:11;;;;;;;;;;;;;;;22.10;31.51;100416.63;5308890;26;33038;-88
2021/05/30 05:41:38;;;;;;;;;;;;;;;20.52;34.52;100424.09;5326919;26;33135;-88
2021/05/30 05:44:06;;;;;;;;;;;;;;;21.89;31.97;100409.16;5326812;26;32603;-88
2021/05/30 05:46:33;;;;;;;;;;;;;;;22.34;31.34;100409.59;5345503;26;33154;-88
2021/05/30 05:49:01;;;;;;;;;;;;;;;22.41;30.91;100415.38;5345076;26;35016;-88
2021/05/30 05:51:29;;;;;;;;;;;;;;;22.24;31.22;100415.66;5326974;26;33999;-88
2021/05/30 05:53:57;;;;;;;;;;;;;;;22.54;30.33;100412.72;5326883;26;33704;-89
2021/05/30 05:56:25;;;;;;;;;;;;;;;22.45;30.59;100431.94;5345370;26;33129;-88
2021/05/30 05:58:52;;;;;;;;;;;;;;;21.90;31.67;100426.78;5363530;26;33699;-88
2021/05/30 06:01:20;;;;;;;;;;;;;;;21.60;31.88;100427.88;5363833;26;33216;-88
2021/05/30 06:03:49;;;;;;;;;;;;;;;22.32;30.59;100422.16;5345191;26;34722;-89
2021/05/30 06:06:17;;;;;;;;;;;;;;;21.43;32.04;100423.69;5363650;26;32493;-88
2021/05/30 06:08:44;;;;;;;;;;;;;;;22.14;31.22;100423.44;5363483;26;33993;-88
2021/05/30 06:11:13;;;;;;;;;;;;;;;22.06;31.24;100423.94;5345278;26;34331;-88
2021/05/30 06:13:40;;;;;;;;;;;;;;;22.25;31.02;100423.53;5326563;26;33873;-88
2021/05/30 06:16:08;;;;;;;;;;;;;;;22.51;30.67;100432.38;5344958;26;31976;-88
2021/05/30 06:18:37;;;;;;;;;;;;;;;21.81;31.84;100435.38;5345243;26;32890;-88
2021/05/30 06:21:04;;;;;;;;;;;;;;;20.01;35.01;100435.12;5345496;26;33227;-89
2021/05/30 06:23:32;;;;;;;;;;;;;;;22.05;31.59;100430.19;5344944;26;33698;-89
2021/05/30 06:26:00;;;;;;;;;;;;;;;22.60;30.85;100438.84;5345046;26;32891;-88
2021/05/30 06:28:27;;;;;;;;;;;;;;;23.00;30.18;100436.00;5345046;26;34431;-88
2021/05/30 06:30:55;;;;;;;;;;;;;;;22.63;30.25;100438.62;5326568;26;32953;-88
2021/05/30 06:33:22;;;;;;;;;;;;;;;22.68;30.20;100432.97;5326475;26;33080;-89
2021/05/30 06:35:50;;;;;;;;;;;;;;;22.92;29.85;100437.50;5326455;26;32431;-88
2021/05/30 06:38:17;;;;;;;;;;;;;;;22.92;29.82;100424.22;5344934;26;34192;-88
2021/05/30 06:40:46;;;;;;;;;;;;;;;22.44;31.17;100428.44;5363741;26;33697;-88
2021/05/30 06:43:13;;;;;;;;;;;;;;;22.60;30.86;100435.31;5326730;26;32923;-87
2021/05/30 06:45:41;;;;;;;;;;;;;;;22.21;31.58;100430.00;5327076;26;33084;-88
2021/05/30 06:48:08;;;;;;;;;;;;;;;21.78;32.42;100430.28;5345636;26;33056;-89
2021/05/30 06:50:36;;;;;;;;;;;;;;;22.65;31.13;100427.88;5346022;26;34066;-87
2021/05/30 06:53:04;;;;;;;;;;;;;;;22.54;31.51;100426.00;5326304;26;33403;-88
2021/05/30 06:55:35;;;;;;;;;;;;;;;22.49;31.58;100428.94;5346413;26;33011;-88
2021/05/30 06:58:03;;;;;;;;;;;;;;;23.04;30.48;100422.47;5330981;26;33290;-89
2021/05/30 07:00:32;;;;;;;;;;;;;;;22.85;30.82;100426.47;5357072;26;34306;-89
2021/05/30 07:03:00;;;;;;;;;;;;;;;22.82;30.97;100424.03;5355681;26;34688;-89
2021/05/30 07:05:28;;;;;;;;;;;;;;;23.48;30.24;100426.34;5367135;26;32580;-88
2021/05/30 07:07:57;;;;;;;;;;;;;;;23.41;30.36;100422.47;5326409;26;33100;-89
2021/05/30 07:10:25;;;;;;;;;;;;;;;23.64;30.09;100421.59;5363450;26;33204;-89
2021/05/30 07:12:53;;;;;;;;;;;;;;;23.76;29.68;100414.50;5326406;26;32579;-89
2021/05/30 07:15:20;;;;;;;;;;;;;;;23.74;29.52;100412.94;5326218;26;32123;-88
2021/05/30 07:17:49;;;;;;;;;;;;;;;23.64;29.59;100416.28;5326645;26;33428;-88
2021/05/30 07:20:17;;;;;;;;;;;;;;;22.61;30.98;100410.47;5327011;26;33097;-88
2021/05/30 07:22:46;;;;;;;;;;;;;;;23.58;29.97;100408.75;5327279;26;32775;-88
2021/05/30 07:25:14;;;;;;;;;;;;;;;23.57;29.96;100415.03;5364387;26;33136;-89
2021/05/30 07:27:41;;;;;;;;;;;;;;;23.75;29.41;100409.31;5345219;26;33753;-89
2021/05/30 07:30:10;;;;;;;;;;;;;;;23.96;29.16;100415.69;5345230;26;33828;-88
2021/05/30 07:32:38;;;;;;;;;;;;;;;24.29;28.41;100411.38;5326810;26;33045;-88
2021/05/30 07:35:07;;;;;;;;;;;;;;;23.75;28.16;100410.16;5345105;26;33022;-89
2021/05/30 07:37:34;;;;;;;;;;;;;;;24.20;27.71;100403.25;5344671;26;34483;-89
2021/05/30 07:40:02;;;;;;;;;;;;;;;24.27;27.99;100407.97;5326598;26;33022;-89
2021/05/30 07:42:30;;;;;;;;;;;;;;;23.86;27.80;100409.31;5363204;26;35057;-88
2021/05/30 07:44:57;;;;;;;;;;;;;;;24.90;26.39;100410.16;5344475;26;33420;-88
2021/05/30 07:47:26;;;;;;;;;;;;;;;24.88;26.30;100412.09;5362981;26;33320;-89
2021/05/30 07:49:53;;;;;;;;;;;;;;;24.45;27.27;100415.47;5363393;26;35095;-88
2021/05/30 07:52:21;;;;;;;;;;;;;;;24.79;25.91;100415.50;5325938;26;33680;-89
2021/05/30 07:54:49;;;;;;;;;;;;;;;23.96;26.74;100425.50;5326144;26;31893;-88
2021/05/30 07:57:16;;;;;;;;;;;;;;;24.97;25.58;100421.16;5344560;26;33911;-88
2021/05/30 07:59:44;;;;;;;;;;;;;;;23.96;27.03;100425.50;5344850;26;34939;-88
2021/05/30 08:02:11;;;;;;;;;;;;;;;24.94;25.95;100421.41;5326246;26;33246;-88
2021/05/30 08:04:39;;;;;;;;;;;;;;;25.24;25.44;100417.25;5344946;26;31917;-89
2021/05/30 08:07:07;;;;;;;;;;;;;;;25.34;24.98;100420.84;5326306;26;32871;-89
2021/05/30 08:09:34;;;;;;;;;;;;;;;25.19;24.83;100417.59;5326327;26;32949;-88
2021/05/30 08:12:02;;;;;;;;;;;;;;;25.42;24.55;100414.88;5326267;26;32873;-89
2021/05/30 08:14:30;;;;;;;;;;;;;;;25.74;24.16;100417.56;5326461;26;33040;-88
2021/05/30 08:16:58;;;;;;;;;;;;;;;25.81;24.00;100417.88;5344684;26;33634;-89
2021/05/30 08:19:26;;;;;;;;;;;;;;;26.03;23.46;100418.72;5344856;26;34003;-90
2021/05/30 08:21:53;;;;;;;;;;;;;;;25.38;24.81;100417.00;5327018;26;34060;-89
2021/05/30 08:24:21;;;;;;;;;;;;;;;25.62;24.37;100422.09;5364205;26;33604;-89
2021/05/30 08:26:51;;;;;;;;;;;;;;;25.34;24.99;100424.38;5345960;26;34731;-88
2021/05/30 08:29:19;;;;;;;;;;;;;;;26.20;23.86;100426.16;5363972;26;32919;-88
2021/05/30 08:31:49;;;;;;;;;;;;;;;26.39;22.41;100427.22;5345378;26;33146;-89
2021/05/30 08:34:18;;;;;;;;;;;;;;;25.98;23.63;100419.09;5364266;26;34894;-88
2021/05/30 08:36:45;;;;;;;;;;;;;;;26.40;23.32;100413.72;5364257;26;33647;-89
2021/05/30 08:39:13;;;;;;;;;;;;;;;26.50;22.87;100421.81;5345385;26;32984;-89
2021/05/30 08:41:41;;;;;;;;;;;;;;;26.86;22.49;100414.22;5345332;26;32919;-89
2021/05/30 08:44:09;;;;;;;;;;;;;;;26.25;23.07;100423.94;5327378;26;32150;-89
2021/05/30 08:46:36;;;;;;;;;;;;;;;25.97;23.31;100415.59;5326936;26;34441;-89
2021/05/30 08:49:05;;;;;;;;;;;;;;;26.50;23.52;100417.28;5345193;26;33272;-89
2021/05/30 08:51:36;;;;;;;;;;;;;;;26.92;23.27;100421.66;5345417;26;34126;-89
2021/05/30 08:54:11;;;;;;;;;;;;;;;26.64;23.73;100418.75;5345212;26;33127;-88
2021/05/30 08:56:41;;;;;;;;;;;;;;;26.11;25.58;100411.78;5363429;26;32899;-89
2021/05/30 08:59:33;;;;;;;;;;;;;;;26.10;25.88;100417.22;5345548;26;33011;-89
2021/05/30 09:02:08;;;;;;;;;;;;;;;26.07;25.56;100425.50;5347108;26;33133;-89
2021/05/30 09:04:39;;;;;;;;;;;;;;;26.04;26.25;100423.94;5362768;26;31995;-89
2021/05/30 09:07:07;;;;;;;;;;;;;;;25.82;26.57;100409.72;5345146;26;33868;-88
2021/05/30 09:09:39;;;;;;;;;;;;;;;25.23;26.63;100411.03;5345724;26;32711;-89
2021/05/30 09:12:11;;;;;;;;;;;;;;;23.23;29.90;100411.38;5345849;26;32926;-89
2021/05/30 09:14:53;;;;;;;;;;;;;;;24.53;26.90;100426.41;5364274;26;33336;-89
2021/05/30 09:17:23;;;;;;;;;;;;;;;25.94;23.14;100421.19;5346769;26;34184;-88
2021/05/30 09:19:55;;;;;;;;;;;;;;;26.22;22.05;100416.19;5327096;26;33406;-89
2021/05/30 09:22:28;;;;;;;;;;;;;;;25.72;22.84;100407.97;5346420;26;33855;-88
2021/05/30 09:24:58;;;;;;;;;;;;;;;26.16;22.47;100409.53;5346513;26;33564;-90
2021/05/30 09:27:35;;;;;;;;;;;;;;;26.63;21.51;100410.88;5347607;26;33421;-88
2021/05/30 09:30:12;;;;;;;;;;;;;;;26.13;22.76;100390.28;5349184;26;33940;-89
2021/05/30 09:32:52;;;;;;;;;;;;;;;25.88;23.46;100419.03;5346808;26;32940;-89
2021/05/30 09:35:23;;;;;;;;;;;;;;;26.39;22.86;100411.19;5344776;26;32065;-89
2021/05/30 09:38:01;;;;;;;;;;;;;;;27.01;22.21;100409.31;5310799;26;32889;-89
2021/05/30 09:40:39;;;;;;;;;;;;;;;26.93;23.68;100411.84;5346076;26;33755;-88
2021/05/30 09:43:19;;;;;;;;;;;;;;;27.03;24.62;100412.72;5344864;26;33342;-90
2021/05/30 09:45:59;;;;;;;;;;;;;;;26.30;25.81;100418.19;5363471;26;32482;-89
2021/05/30 09:48:27;;;;;;;;;;;;;;;24.45;28.65;100405.69;5344925;26;32594;-89
2021/05/30 09:51:06;;;;;;;;;;;;;;;25.59;26.91;100406.31;5327251;26;32904;-88
2021/05/30 09:53:54;;;;;;;;;;;;;;;25.04;27.71;100416.22;5344831;26;34226;-89
2021/05/30 09:56:29;;;;;;;;;;;;;;;25.79;25.02;100403.81;5345196;26;32074;-90
2021/05/30 09:58:57;;;;;;;;;;;;;;;26.02;24.56;100401.84;5344676;26;33170;-90
2021/05/30 10:01:25;;;;;;;;;;;;;;;26.46;24.18;100407.03;5326630;26;33048;-89
2021/05/30 10:03:55;;;;;;;;;;;;;;;26.12;23.42;100397.44;5345059;26;32986;-89
2021/05/30 10:06:23;;;;;;;;;;;;;;;26.02;24.23;100396.53;5345010;26;32319;-89
2021/05/30 10:08:51;;;;;;;;;;;;;;;26.09;23.46;100394.19;5364308;26;32819;-87
2021/05/30 10:11:19;;;;;;;;;;;;;;;27.11;22.40;100398.62;5346336;26;33039;-89
2021/05/30 10:13:46;;;;;;;;;;;;;;;27.33;21.49;100393.00;5327233;26;33179;-89
2021/05/30 10:16:15;;;;;;;;;;;;;;;26.56;22.14;100391.84;5327570;26;32265;-89
2021/05/30 10:18:44;;;;;;;;;;;;;;;27.37;21.22;100388.25;5347326;26;34264;-89
2021/05/30 10:21:14;;;;;;;;;;;;;;;27.73;20.81;100393.03;5366336;26;34100;-88
2021/05/30 10:23:42;;;;;;;;;;;;;;;27.16;21.32;100397.25;5348310;26;33107;-88
2021/05/30 10:26:20;;;;;;;;;;;;;;;27.27;23.68;100406.09;5308467;26;32169;-89
2021/05/30 10:28:58;;;;;;;;;;;;;;;26.88;24.51;100400.72;5363741;26;34021;-89
2021/05/30 10:31:26;;;;;;;;;;;;;;;26.96;24.05;100404.41;5345355;26;32936;-89
2021/05/30 10:34:13;;;;;;;;;;;;;;;26.60;25.13;100398.62;5345322;26;32808;-88
2021/05/30 10:36:42;;;;;;;;;;;;;;;26.27;25.94;100397.94;5363324;26;32747;-88
2021/05/30 10:39:28;;;;;;;;;;;;;;;26.54;25.14;100399.19;5363466;26;34646;-89
2021/05/30 10:42:08;;;;;;;;;;;;;;;26.71;24.91;100391.47;5363539;26;34503;-88
2021/05/30 10:44:55;;;;;;;;;;;;;;;27.04;24.34;100389.47;5344362;26;33852;-89
2021/05/30 10:47:46;;;;;;;;;;;;;;;26.14;25.38;100389.31;5345042;26;32200;-88
2021/05/30 10:50:16;;;;;;;;;;;;;;;26.75;24.08;100387.59;5345077;26;33859;-88
2021/05/30 10:52:53;;;;;;;;;;;;;;;26.30;24.48;100391.50;5363401;26;32921;-89
2021/05/30 10:55:31;;;;;;;;;;;;;;;25.15;26.09;100387.66;5345082;26;32901;-89
2021/05/30 10:58:12;;;;;;;;;;;;;;;26.09;24.31;100379.00;5344991;26;32072;-88
2021/05/30 11:00:41;;;;;;;;;;;;;;;25.15;25.41;100376.16;5363298;26;34024;-89
2021/05/30 11:03:11;;;;;;;;;;;;;;;26.17;24.65;100389.03;5344974;26;32639;-89
2021/05/30 11:05:42;;;;;;;;;;;;;;;26.56;24.18;100383.84;5345167;26;34523;-89
2021/05/30 11:08:31;;;;;;;;;;;;;;;25.78;24.86;100384.28;5345124;26;32297;-89
2021/05/30 11:11:11;;;;;;;;;;;;;;;25.43;24.99;100380.09;5365220;26;34120;-88
2021/05/30 11:13:52;;;;;;;;;;;;;;;24.76;25.98;100391.78;5345087;26;33878;-89
2021/05/30 11:16:22;;;;;;;;;;;;;;;26.32;24.04;100392.19;5344766;26;33424;-89
2021/05/30 11:19:01;;;;;;;;;;;;;;;26.56;24.06;100394.53;5363634;26;32816;-88
2021/05/30 11:21:29;;;;;;;;;;;;;;;27.21;23.91;100404.84;5363434;26;33146;-89
2021/05/30 11:23:58;;;;;;;;;;;;;;;26.00;25.99;100401.97;5345018;26;33666;-89
2021/05/30 11:26:26;;;;;;;;;;;;;;;25.95;26.66;100406.87;5326739;26;32948;-88
2021/05/30 11:28:54;;;;;;;;;;;;;;;26.44;26.08;100411.66;5344985;26;32695;-89
2021/05/30 11:31:23;;;;;;;;;;;;;;;24.90;28.66;100415.47;5345033;26;34219;-88
2021/05/30 11:33:55;;;;;;;;;;;;;;;25.37;28.27;100409.09;5344758;26;34056;-89
2021/05/30 11:36:23;;;;;;;;;;;;;;;25.92;27.48;100417.78;5308250;26;32898;-89
2021/05/30 11:39:12;;;;;;;;;;;;;;;25.36;28.05;100420.75;5322650;26;868843;-89
2021/05/30 11:41:49;;;;;;;;;;;;;;;25.35;27.85;100419.87;5359786;26;34095;-89
2021/05/30 11:44:25;;;;;;;;;;;;;;;24.67;29.17;100420.84;5363503;26;34569;-89
2021/05/30 11:46:57;;;;;;;;;;;;;;;25.54;28.12;100419.22;5363380;26;33721;-88
2021/05/30 11:49:25;;;;;;;;;;;;;;;25.39;28.30;100428.50;5345605;26;33220;-88
2021/05/30 11:52:03;;;;;;;;;;;;;;;25.74;28.26;100414.88;5363963;26;32673;-89
2021/05/30 11:54:31;;;;;;;;;;;;;;;23.87;31.93;100432.31;5345002;26;33058;-89
2021/05/30 11:57:03;;;;;;;;;;;;;;;24.75;30.67;100432.72;5345457;26;33089;-89
2021/05/30 11:59:31;;;;;;;;;;;;;;;25.89;29.08;100426.06;5345761;26;33445;-89
2021/05/30 12:01:58;;;;;;;;;;;;;;;25.35;30.45;100427.88;5366282;26;34097;-89
2021/05/30 12:04:29;;;;;;;;;;;;;;;25.56;30.34;100432.44;5327690;26;33263;-88
2021/05/30 12:06:57;;;;;;;;;;;;;;;25.44;30.95;100426.28;5345582;26;33907;-88
2021/05/30 12:09:41;;;;;;;;;;;;;;;24.81;32.33;100433.06;5364406;26;32901;-88
2021/05/30 12:12:29;;;;;;;;;;;;;;;24.38;33.32;100424.94;5344660;26;32931;-89
2021/05/30 12:15:00;;;;;;;;;;;;;;;25.03;32.28;100418.00;5352005;26;34169;-89
2021/05/30 12:17:28;;;;;;;;;;;;;;;23.97;34.22;100425.38;5363523;26;34485;-88
2021/05/30 12:19:56;;;;;;;;;;;;;;;24.52;33.19;100428.19;5344658;26;32669;-89
2021/05/30 12:22:25;;;;;;;;;;;;;;;24.00;32.55;100426.94;5326451;26;33944;-89
2021/05/30 12:24:53;;;;;;;;;;;;;;;24.12;31.95;100435.81;5363151;26;33198;-87
2021/05/30 12:27:21;;;;;;;;;;;;;;;23.81;32.50;100422.12;5363628;26;32923;-88
2021/05/30 12:29:51;;;;;;;;;;;;;;;24.77;31.04;100425.44;5345606;26;33820;-89
2021/05/30 12:32:20;;;;;;;;;;;;;;;23.79;33.19;100426.72;5363107;26;34946;-89
2021/05/30 12:34:49;;;;;;;;;;;;;;;23.76;33.24;100429.59;5326670;26;34110;-89
2021/05/30 12:37:17;;;;;;;;;;;;;;;24.10;33.34;100424.41;5344604;26;32999;-88
2021/05/30 12:39:45;;;;;;;;;;;;;;;25.39;33.47;100420.50;5362940;26;32359;-88
2021/05/30 12:42:19;;;;;;;;;;;;;;;25.55;33.85;100430.72;5344667;26;34029;-88
2021/05/30 12:44:55;;;;;;;;;;;;;;;24.71;33.17;100437.44;5327129;26;33108;-88
2021/05/30 12:47:24;;;;;;;;;;;;;;;24.89;33.95;100434.25;5363193;26;33815;-89